<?xml version="1.0" encoding="UTF-8" standalone="no" ?>
<gpx xmlns="http://www.topografix.com/GPX/1/1" xmlns:xsi="http://www.w3.org/2001/XMLSchema-instance" xsi:schemaLocation="http://www.topografix.com/GPX/1/1 http://www.topografix.com/GPX/1/1/gpx.xsd" version="1.1" creator="VisuGPX - https://www.visugpx.com">
  <metadata>
    <name>StLyé30,7</name>
    <desc><![CDATA[
Total: 30.8km]]></desc>
  </metadata>
  <trk>
    <name><![CDATA[StLyé30,7]]></name>
    <desc><![CDATA[Total: 30.8km]]></desc>
    <trkseg>
      <trkpt lat="48.03763" lon="1.98581">
        <ele>127.73828125</ele>
        <time>2022-09-19T13:00:00Z</time>
      </trkpt>
      <trkpt lat="48.03698" lon="1.9853">
        <ele>128.7578125</ele>
        <time>2022-09-19T13:00:16Z</time>
      </trkpt>
      <trkpt lat="48.03675" lon="1.98583">
        <ele>129</ele>
        <time>2022-09-19T13:00:26Z</time>
      </trkpt>
      <trkpt lat="48.03601" lon="1.98524">
        <ele>128.30078125</ele>
        <time>2022-09-19T13:00:44Z</time>
      </trkpt>
      <trkpt lat="48.03591" lon="1.98544">
        <ele>128.31640625</ele>
        <time>2022-09-19T13:00:48Z</time>
      </trkpt>
      <trkpt lat="48.03536" lon="1.98824">
        <ele>130.99609375</ele>
        <time>2022-09-19T13:01:31Z</time>
      </trkpt>
      <trkpt lat="48.03513" lon="1.98989">
        <ele>131.98046875</ele>
        <time>2022-09-19T13:01:57Z</time>
      </trkpt>
      <trkpt lat="48.03503" lon="1.9916">
        <ele>133</ele>
        <time>2022-09-19T13:02:22Z</time>
      </trkpt>
      <trkpt lat="48.03478" lon="1.99274">
        <ele>133</ele>
        <time>2022-09-19T13:02:40Z</time>
      </trkpt>
      <trkpt lat="48.03488" lon="1.99334">
        <ele>133.09375</ele>
        <time>2022-09-19T13:02:49Z</time>
      </trkpt>
      <trkpt lat="48.03367" lon="1.99715">
        <ele>136</ele>
        <time>2022-09-19T13:03:52Z</time>
      </trkpt>
      <trkpt lat="48.03544" lon="1.99592">
        <ele>134.59765625</ele>
        <time>2022-09-19T13:04:36Z</time>
      </trkpt>
      <trkpt lat="48.0364" lon="1.99565">
        <ele>133.29296875</ele>
        <time>2022-09-19T13:04:57Z</time>
      </trkpt>
      <trkpt lat="48.0366" lon="1.99529">
        <ele>132.86328125</ele>
        <time>2022-09-19T13:05:04Z</time>
      </trkpt>
      <trkpt lat="48.03822" lon="1.99775">
        <ele>129.515625</ele>
        <time>2022-09-19T13:05:56Z</time>
      </trkpt>
      <trkpt lat="48.03843" lon="2.00523">
        <ele>127</ele>
        <time>2022-09-19T13:07:47Z</time>
      </trkpt>
      <trkpt lat="48.03859" lon="2.01095">
        <ele>129</ele>
        <time>2022-09-19T13:09:13Z</time>
      </trkpt>
      <trkpt lat="48.03697" lon="2.01196">
        <ele>129</ele>
        <time>2022-09-19T13:09:52Z</time>
      </trkpt>
      <trkpt lat="48.03583" lon="2.01307">
        <ele>130</ele>
        <time>2022-09-19T13:10:22Z</time>
      </trkpt>
      <trkpt lat="48.03443" lon="2.01307">
        <ele>130.26171875</ele>
        <time>2022-09-19T13:10:53Z</time>
      </trkpt>
      <trkpt lat="48.03366" lon="2.01342">
        <ele>129.62890625</ele>
        <time>2022-09-19T13:11:11Z</time>
      </trkpt>
      <trkpt lat="48.03326" lon="2.01388">
        <ele>129.4453125</ele>
        <time>2022-09-19T13:11:22Z</time>
      </trkpt>
      <trkpt lat="48.03255" lon="2.0144">
        <ele>130.1328125</ele>
        <time>2022-09-19T13:11:40Z</time>
      </trkpt>
      <trkpt lat="48.03235" lon="2.01541">
        <ele>131</ele>
        <time>2022-09-19T13:11:56Z</time>
      </trkpt>
      <trkpt lat="48.03201" lon="2.01593">
        <ele>131.625</ele>
        <time>2022-09-19T13:12:06Z</time>
      </trkpt>
      <trkpt lat="48.03314" lon="2.01682">
        <ele>131</ele>
        <time>2022-09-19T13:12:35Z</time>
      </trkpt>
      <trkpt lat="48.03422" lon="2.01784">
        <ele>130</ele>
        <time>2022-09-19T13:13:03Z</time>
      </trkpt>
      <trkpt lat="48.03471" lon="2.01903">
        <ele>129.53515625</ele>
        <time>2022-09-19T13:13:24Z</time>
      </trkpt>
      <trkpt lat="48.03489" lon="2.01946">
        <ele>129</ele>
        <time>2022-09-19T13:13:32Z</time>
      </trkpt>
      <trkpt lat="48.03564" lon="2.02005">
        <ele>128.703125</ele>
        <time>2022-09-19T13:13:51Z</time>
      </trkpt>
      <trkpt lat="48.03681" lon="2.02057">
        <ele>128</ele>
        <time>2022-09-19T13:14:18Z</time>
      </trkpt>
      <trkpt lat="48.03757" lon="2.02134">
        <ele>128</ele>
        <time>2022-09-19T13:14:38Z</time>
      </trkpt>
      <trkpt lat="48.03876" lon="2.02326">
        <ele>126</ele>
        <time>2022-09-19T13:15:17Z</time>
      </trkpt>
      <trkpt lat="48.03882" lon="2.02413">
        <ele>126</ele>
        <time>2022-09-19T13:15:30Z</time>
      </trkpt>
      <trkpt lat="48.03898" lon="2.02493">
        <ele>126</ele>
        <time>2022-09-19T13:15:43Z</time>
      </trkpt>
      <trkpt lat="48.03949" lon="2.02588">
        <ele>127.578125</ele>
        <time>2022-09-19T13:16:01Z</time>
      </trkpt>
      <trkpt lat="48.04001" lon="2.0262">
        <ele>128.390625</ele>
        <time>2022-09-19T13:16:13Z</time>
      </trkpt>
      <trkpt lat="48.04029" lon="2.02659">
        <ele>128.7890625</ele>
        <time>2022-09-19T13:16:22Z</time>
      </trkpt>
      <trkpt lat="48.03999" lon="2.02672">
        <ele>129</ele>
        <time>2022-09-19T13:16:29Z</time>
      </trkpt>
      <trkpt lat="48.03975" lon="2.02661">
        <ele>129</ele>
        <time>2022-09-19T13:16:34Z</time>
      </trkpt>
      <trkpt lat="48.03902" lon="2.02694">
        <ele>128.73046875</ele>
        <time>2022-09-19T13:16:51Z</time>
      </trkpt>
      <trkpt lat="48.03696" lon="2.02779">
        <ele>129.41015625</ele>
        <time>2022-09-19T13:17:39Z</time>
      </trkpt>
      <trkpt lat="48.03512" lon="2.02694">
        <ele>127</ele>
        <time>2022-09-19T13:18:22Z</time>
      </trkpt>
      <trkpt lat="48.03125" lon="2.02736">
        <ele>130</ele>
        <time>2022-09-19T13:19:48Z</time>
      </trkpt>
      <trkpt lat="48.03035" lon="2.02896">
        <ele>129.89453125</ele>
        <time>2022-09-19T13:20:19Z</time>
      </trkpt>
      <trkpt lat="48.03134" lon="2.038">
        <ele>130</ele>
        <time>2022-09-19T13:22:36Z</time>
      </trkpt>
      <trkpt lat="48.02641" lon="2.03586">
        <ele>132.82421875</ele>
        <time>2022-09-19T13:24:30Z</time>
      </trkpt>
      <trkpt lat="48.02532" lon="2.0399">
        <ele>134</ele>
        <time>2022-09-19T13:25:35Z</time>
      </trkpt>
      <trkpt lat="48.0237" lon="2.04597">
        <ele>138.65625</ele>
        <time>2022-09-19T13:27:13Z</time>
      </trkpt>
      <trkpt lat="48.024" lon="2.05736">
        <ele>137.0625</ele>
        <time>2022-09-19T13:30:03Z</time>
      </trkpt>
      <trkpt lat="48.01994" lon="2.05817">
        <ele>138</ele>
        <time>2022-09-19T13:31:34Z</time>
      </trkpt>
      <trkpt lat="48.01878" lon="2.05746">
        <ele>137</ele>
        <time>2022-09-19T13:32:02Z</time>
      </trkpt>
      <trkpt lat="48.0174" lon="2.05469">
        <ele>134.9765625</ele>
        <time>2022-09-19T13:32:53Z</time>
      </trkpt>
      <trkpt lat="48.01709" lon="2.04344">
        <ele>134</ele>
        <time>2022-09-19T13:35:41Z</time>
      </trkpt>
      <trkpt lat="48.01024" lon="2.03042">
        <ele>134.921875</ele>
        <time>2022-09-19T13:39:48Z</time>
      </trkpt>
      <trkpt lat="48.00993" lon="2.02261">
        <ele>131</ele>
        <time>2022-09-19T13:41:45Z</time>
      </trkpt>
      <trkpt lat="48.00957" lon="2.01087">
        <ele>131.1171875</ele>
        <time>2022-09-19T13:44:40Z</time>
      </trkpt>
      <trkpt lat="48.00943" lon="2.00449">
        <ele>130</ele>
        <time>2022-09-19T13:46:15Z</time>
      </trkpt>
      <trkpt lat="48.00289" lon="2.0003">
        <ele>128.84765625</ele>
        <time>2022-09-19T13:48:54Z</time>
      </trkpt>
      <trkpt lat="48.00096" lon="1.9963">
        <ele>127.19921875</ele>
        <time>2022-09-19T13:50:07Z</time>
      </trkpt>
      <trkpt lat="48.0006" lon="1.99467">
        <ele>127.8359375</ele>
        <time>2022-09-19T13:50:33Z</time>
      </trkpt>
      <trkpt lat="47.99425" lon="1.99056">
        <ele>128</ele>
        <time>2022-09-19T13:53:07Z</time>
      </trkpt>
      <trkpt lat="47.99406" lon="1.98099">
        <ele>131</ele>
        <time>2022-09-19T13:55:30Z</time>
      </trkpt>
      <trkpt lat="47.99399" lon="1.96717">
        <ele>128.17578125</ele>
        <time>2022-09-19T13:58:56Z</time>
      </trkpt>
      <trkpt lat="47.99219" lon="1.9658">
        <ele>128</ele>
        <time>2022-09-19T13:59:41Z</time>
      </trkpt>
      <trkpt lat="47.98954" lon="1.96925">
        <ele>131</ele>
        <time>2022-09-19T14:00:59Z</time>
      </trkpt>
      <trkpt lat="47.98884" lon="1.97057">
        <ele>130</ele>
        <time>2022-09-19T14:01:24Z</time>
      </trkpt>
      <trkpt lat="47.98572" lon="1.97236">
        <ele>130</ele>
        <time>2022-09-19T14:02:39Z</time>
      </trkpt>
      <trkpt lat="47.98294" lon="1.9752">
        <ele>129.046875</ele>
        <time>2022-09-19T14:03:54Z</time>
      </trkpt>
      <trkpt lat="47.98132" lon="1.97699">
        <ele>133.73828125</ele>
        <time>2022-09-19T14:04:39Z</time>
      </trkpt>
      <trkpt lat="47.98127" lon="1.97727">
        <ele>133.90234375</ele>
        <time>2022-09-19T14:04:43Z</time>
      </trkpt>
      <trkpt lat="47.9813" lon="1.98075">
        <ele>136</ele>
        <time>2022-09-19T14:05:35Z</time>
      </trkpt>
      <trkpt lat="47.98134" lon="1.98286">
        <ele>131.69921875</ele>
        <time>2022-09-19T14:06:06Z</time>
      </trkpt>
      <trkpt lat="47.98634" lon="1.98465">
        <ele>130.97265625</ele>
        <time>2022-09-19T14:08:01Z</time>
      </trkpt>
      <trkpt lat="47.98744" lon="1.99249">
        <ele>131</ele>
        <time>2022-09-19T14:10:01Z</time>
      </trkpt>
      <trkpt lat="47.98869" lon="2.00207">
        <ele>129.7265625</ele>
        <time>2022-09-19T14:12:26Z</time>
      </trkpt>
      <trkpt lat="47.99426" lon="2.01191">
        <ele>130</ele>
        <time>2022-09-19T14:15:38Z</time>
      </trkpt>
      <trkpt lat="48.00325" lon="2.01132">
        <ele>132.28515625</ele>
        <time>2022-09-19T14:18:58Z</time>
      </trkpt>
      <trkpt lat="48.01014" lon="2.0302">
        <ele>135.0546875</ele>
        <time>2022-09-19T14:24:19Z</time>
      </trkpt>
      <trkpt lat="48.01646" lon="2.02424">
        <ele>140</ele>
        <time>2022-09-19T14:27:05Z</time>
      </trkpt>
      <trkpt lat="48.0186" lon="2.02243">
        <ele>137.51171875</ele>
        <time>2022-09-19T14:28:00Z</time>
      </trkpt>
      <trkpt lat="48.02118" lon="2.01787">
        <ele>135.58984375</ele>
        <time>2022-09-19T14:29:29Z</time>
      </trkpt>
      <trkpt lat="48.02304" lon="2.01224">
        <ele>136</ele>
        <time>2022-09-19T14:31:03Z</time>
      </trkpt>
      <trkpt lat="48.02568" lon="2.00984">
        <ele>136</ele>
        <time>2022-09-19T14:32:12Z</time>
      </trkpt>
      <trkpt lat="48.02803" lon="2.00589">
        <ele>135.90234375</ele>
        <time>2022-09-19T14:33:30Z</time>
      </trkpt>
      <trkpt lat="48.02784" lon="1.99963">
        <ele>136.40625</ele>
        <time>2022-09-19T14:35:04Z</time>
      </trkpt>
      <trkpt lat="48.03222" lon="1.9993">
        <ele>137.8984375</ele>
        <time>2022-09-19T14:36:41Z</time>
      </trkpt>
      <trkpt lat="48.03105" lon="1.99212">
        <ele>130</ele>
        <time>2022-09-19T14:38:32Z</time>
      </trkpt>
      <trkpt lat="48.03167" lon="1.98579">
        <ele>130.14453125</ele>
        <time>2022-09-19T14:40:07Z</time>
      </trkpt>
      <trkpt lat="48.033" lon="1.98546">
        <ele>129.9140625</ele>
        <time>2022-09-19T14:40:37Z</time>
      </trkpt>
      <trkpt lat="48.03339" lon="1.98543">
        <ele>129.2265625</ele>
        <time>2022-09-19T14:40:46Z</time>
      </trkpt>
      <trkpt lat="48.03368" lon="1.98506">
        <ele>128.703125</ele>
        <time>2022-09-19T14:40:54Z</time>
      </trkpt>
      <trkpt lat="48.03524" lon="1.98542">
        <ele>128</ele>
        <time>2022-09-19T14:41:29Z</time>
      </trkpt>
      <trkpt lat="48.03587" lon="1.98545">
        <ele>128.24609375</ele>
        <time>2022-09-19T14:41:43Z</time>
      </trkpt>
      <trkpt lat="48.036" lon="1.98527">
        <ele>128.3203125</ele>
        <time>2022-09-19T14:41:47Z</time>
      </trkpt>
      <trkpt lat="48.03674" lon="1.98582">
        <ele>129</ele>
        <time>2022-09-19T14:42:05Z</time>
      </trkpt>
      <trkpt lat="48.03698" lon="1.98532">
        <ele>128.75390625</ele>
        <time>2022-09-19T14:42:15Z</time>
      </trkpt>
      <trkpt lat="48.03765" lon="1.98581">
        <ele>127.7109375</ele>
        <time>2022-09-19T14:42:31Z</time>
      </trkpt>
    </trkseg>
  </trk>
</gpx>